sensor_id;sensor_type;location;lat;lon;timestamp;temperature;humidity
16814;DHT22;8524;57.650;11.926;2022-12-18T00:01:58;3.40;99.90
16814;DHT22;8524;57.650;11.926;2022-12-18T00:04:26;3.40;99.90
16814;DHT22;8524;57.650;11.926;2022-12-18T00:06:55;3.50;99.90
16814;DHT22;8524;57.650;11.926;2022-12-18T00:09:22;3.50;99.90
16814;DHT22;8524;57.650;11.926;2022-12-18T00:11:49;3.50;99.90
16814;DHT22;8524;57.650;11.926;2022-12-18T00:14:16;3.50;99.90
16814;DHT22;8524;57.650;11.926;2022-12-18T00:16:44;3.50;99.90
16814;DHT22;8524;57.650;11.926;2022-12-18T00:19:12;3.50;99.90
16814;DHT22;8524;57.650;11.926;2022-12-18T00:21:39;3.40;99.90
16814;DHT22;8524;57.650;11.926;2022-12-18T00:24:08;3.40;99.90
16814;DHT22;8524;57.650;11.926;2022-12-18T00:26:36;3.40;99.90
16814;DHT22;8524;57.650;11.926;2022-12-18T00:29:06;3.40;99.90
16814;DHT22;8524;57.650;11.926;2022-12-18T00:31:33;3.30;99.90
16814;DHT22;8524;57.650;11.926;2022-12-18T00:34:00;3.20;99.90
16814;DHT22;8524;57.650;11.926;2022-12-18T00:36:28;3.20;99.90
16814;DHT22;8524;57.650;11.926;2022-12-18T00:38:57;3.20;99.90
16814;DHT22;8524;57.650;11.926;2022-12-18T00:41:27;3.10;99.90
16814;DHT22;8524;57.650;11.926;2022-12-18T00:44:13;3.00;99.90
16814;DHT22;8524;57.650;11.926;2022-12-18T00:46:41;2.90;99.90
16814;DHT22;8524;57.650;11.926;2022-12-18T00:49:08;2.90;99.90
16814;DHT22;8524;57.650;11.926;2022-12-18T00:51:35;2.80;99.90
16814;DHT22;8524;57.650;11.926;2022-12-18T00:54:02;2.90;99.90
16814;DHT22;8524;57.650;11.926;2022-12-18T00:56:31;3.00;99.90
16814;DHT22;8524;57.650;11.926;2022-12-18T00:58:58;2.90;99.90
16814;DHT22;8524;57.650;11.926;2022-12-18T01:01:24;2.90;99.90
16814;DHT22;8524;57.650;11.926;2022-12-18T01:03:51;2.90;99.90
16814;DHT22;8524;57.650;11.926;2022-12-18T01:06:18;2.90;99.90
16814;DHT22;8524;57.650;11.926;2022-12-18T01:08:45;2.80;99.90
16814;DHT22;8524;57.650;11.926;2022-12-18T01:11:14;2.90;99.90
16814;DHT22;8524;57.650;11.926;2022-12-18T01:13:42;2.90;99.90
16814;DHT22;8524;57.650;11.926;2022-12-18T01:16:11;2.90;99.90
16814;DHT22;8524;57.650;11.926;2022-12-18T01:18:38;2.90;99.90
16814;DHT22;8524;57.650;11.926;2022-12-18T01:21:06;2.90;99.90
16814;DHT22;8524;57.650;11.926;2022-12-18T01:23:33;2.90;99.90
16814;DHT22;8524;57.650;11.926;2022-12-18T01:26:04;2.90;99.90
16814;DHT22;8524;57.650;11.926;2022-12-18T01:28:31;3.00;99.90
16814;DHT22;8524;57.650;11.926;2022-12-18T01:31:14;3.00;99.90
16814;DHT22;8524;57.650;11.926;2022-12-18T01:33:42;2.90;99.90
16814;DHT22;8524;57.650;11.926;2022-12-18T01:36:14;2.90;99.90
16814;DHT22;8524;57.650;11.926;2022-12-18T01:38:41;2.80;99.90
16814;DHT22;8524;57.650;11.926;2022-12-18T01:41:08;2.80;99.90
16814;DHT22;8524;57.650;11.926;2022-12-18T01:43:48;2.80;99.90
16814;DHT22;8524;57.650;11.926;2022-12-18T01:46:18;2.90;99.90
16814;DHT22;8524;57.650;11.926;2022-12-18T01:48:48;2.90;99.90
16814;DHT22;8524;57.650;11.926;2022-12-18T01:51:15;2.90;99.90
16814;DHT22;8524;57.650;11.926;2022-12-18T01:53:43;2.90;99.90
16814;DHT22;8524;57.650;11.926;2022-12-18T01:56:14;2.90;99.90
16814;DHT22;8524;57.650;11.926;2022-12-18T01:58:48;2.90;99.90
16814;DHT22;8524;57.650;11.926;2022-12-18T02:01:18;2.80;99.90
16814;DHT22;8524;57.650;11.926;2022-12-18T02:03:46;2.90;99.90
16814;DHT22;8524;57.650;11.926;2022-12-18T02:06:15;2.90;99.90
16814;DHT22;8524;57.650;11.926;2022-12-18T02:08:54;3.00;99.90
16814;DHT22;8524;57.650;11.926;2022-12-18T02:11:31;3.00;99.90
16814;DHT22;8524;57.650;11.926;2022-12-18T02:14:06;3.10;99.90
16814;DHT22;8524;57.650;11.926;2022-12-18T02:16:43;3.10;99.90
16814;DHT22;8524;57.650;11.926;2022-12-18T02:19:20;3.30;99.90
16814;DHT22;8524;57.650;11.926;2022-12-18T02:21:59;3.30;99.90
16814;DHT22;8524;57.650;11.926;2022-12-18T02:24:37;3.30;99.90
16814;DHT22;8524;57.650;11.926;2022-12-18T02:27:10;3.40;99.90
16814;DHT22;8524;57.650;11.926;2022-12-18T02:29:40;3.40;99.90
16814;DHT22;8524;57.650;11.926;2022-12-18T02:32:14;3.40;99.90
16814;DHT22;8524;57.650;11.926;2022-12-18T02:34:43;3.50;99.90
16814;DHT22;8524;57.650;11.926;2022-12-18T02:37:13;3.40;99.90
16814;DHT22;8524;57.650;11.926;2022-12-18T02:39:43;3.40;99.90
16814;DHT22;8524;57.650;11.926;2022-12-18T02:42:13;3.50;99.90
16814;DHT22;8524;57.650;11.926;2022-12-18T02:44:44;3.50;99.90
16814;DHT22;8524;57.650;11.926;2022-12-18T02:47:12;3.50;99.90
16814;DHT22;8524;57.650;11.926;2022-12-18T02:49:47;3.50;99.90
16814;DHT22;8524;57.650;11.926;2022-12-18T02:52:21;3.50;99.90
16814;DHT22;8524;57.650;11.926;2022-12-18T02:54:57;3.60;99.90
16814;DHT22;8524;57.650;11.926;2022-12-18T02:57:34;3.50;99.90
16814;DHT22;8524;57.650;11.926;2022-12-18T03:00:06;3.50;99.90
16814;DHT22;8524;57.650;11.926;2022-12-18T03:02:39;3.50;99.90
16814;DHT22;8524;57.650;11.926;2022-12-18T03:05:14;3.60;99.90
16814;DHT22;8524;57.650;11.926;2022-12-18T03:07:46;3.60;99.90
16814;DHT22;8524;57.650;11.926;2022-12-18T03:10:19;3.60;99.90
16814;DHT22;8524;57.650;11.926;2022-12-18T03:12:52;3.60;99.90
16814;DHT22;8524;57.650;11.926;2022-12-18T03:15:23;3.60;99.90
16814;DHT22;8524;57.650;11.926;2022-12-18T03:17:56;3.60;99.90
16814;DHT22;8524;57.650;11.926;2022-12-18T03:20:26;3.60;99.90
16814;DHT22;8524;57.650;11.926;2022-12-18T03:22:59;3.60;99.90
16814;DHT22;8524;57.650;11.926;2022-12-18T03:25:28;3.60;99.90
16814;DHT22;8524;57.650;11.926;2022-12-18T03:28:00;3.60;99.90
16814;DHT22;8524;57.650;11.926;2022-12-18T03:30:31;3.60;99.90
16814;DHT22;8524;57.650;11.926;2022-12-18T03:33:04;3.60;99.90
16814;DHT22;8524;57.650;11.926;2022-12-18T03:35:35;3.60;99.90
16814;DHT22;8524;57.650;11.926;2022-12-18T03:38:03;3.70;99.90
16814;DHT22;8524;57.650;11.926;2022-12-18T03:40:35;3.60;99.90
16814;DHT22;8524;57.650;11.926;2022-12-18T03:43:09;3.60;99.90
16814;DHT22;8524;57.650;11.926;2022-12-18T03:45:49;3.60;99.90
16814;DHT22;8524;57.650;11.926;2022-12-18T03:48:20;3.60;99.90
16814;DHT22;8524;57.650;11.926;2022-12-18T03:50:56;3.60;99.90
16814;DHT22;8524;57.650;11.926;2022-12-18T03:53:30;3.70;99.90
16814;DHT22;8524;57.650;11.926;2022-12-18T03:56:00;3.70;99.90
16814;DHT22;8524;57.650;11.926;2022-12-18T03:58:32;3.60;99.90
16814;DHT22;8524;57.650;11.926;2022-12-18T04:01:02;3.60;99.90
16814;DHT22;8524;57.650;11.926;2022-12-18T04:03:35;3.60;99.90
16814;DHT22;8524;57.650;11.926;2022-12-18T04:06:03;3.70;99.90
16814;DHT22;8524;57.650;11.926;2022-12-18T04:08:32;3.60;99.90
16814;DHT22;8524;57.650;11.926;2022-12-18T04:11:00;3.70;99.90
16814;DHT22;8524;57.650;11.926;2022-12-18T04:13:32;3.70;99.90
16814;DHT22;8524;57.650;11.926;2022-12-18T04:15:59;3.70;99.90
16814;DHT22;8524;57.650;11.926;2022-12-18T04:18:26;3.60;99.90
16814;DHT22;8524;57.650;11.926;2022-12-18T04:20:53;3.70;99.90
16814;DHT22;8524;57.650;11.926;2022-12-18T04:23:21;3.60;99.90
16814;DHT22;8524;57.650;11.926;2022-12-18T04:25:48;3.60;99.90
16814;DHT22;8524;57.650;11.926;2022-12-18T04:28:15;3.70;99.90
16814;DHT22;8524;57.650;11.926;2022-12-18T04:30:43;3.70;99.90
16814;DHT22;8524;57.650;11.926;2022-12-18T04:33:11;3.60;99.90
16814;DHT22;8524;57.650;11.926;2022-12-18T04:35:38;3.60;99.90
16814;DHT22;8524;57.650;11.926;2022-12-18T04:38:05;3.60;99.90
16814;DHT22;8524;57.650;11.926;2022-12-18T04:40:35;3.60;99.90
16814;DHT22;8524;57.650;11.926;2022-12-18T04:43:02;3.60;99.90
16814;DHT22;8524;57.650;11.926;2022-12-18T04:45:30;3.60;99.90
16814;DHT22;8524;57.650;11.926;2022-12-18T04:47:58;3.70;99.90
16814;DHT22;8524;57.650;11.926;2022-12-18T04:50:25;3.60;99.90
16814;DHT22;8524;57.650;11.926;2022-12-18T04:52:52;3.60;99.90
16814;DHT22;8524;57.650;11.926;2022-12-18T04:55:20;3.60;99.90
16814;DHT22;8524;57.650;11.926;2022-12-18T04:57:47;3.60;99.90
16814;DHT22;8524;57.650;11.926;2022-12-18T05:00:14;3.60;99.90
16814;DHT22;8524;57.650;11.926;2022-12-18T05:02:41;3.70;99.90
16814;DHT22;8524;57.650;11.926;2022-12-18T05:05:10;3.60;99.90
16814;DHT22;8524;57.650;11.926;2022-12-18T05:07:37;3.70;99.90
16814;DHT22;8524;57.650;11.926;2022-12-18T05:10:05;3.70;99.90
16814;DHT22;8524;57.650;11.926;2022-12-18T05:12:32;3.70;99.90
16814;DHT22;8524;57.650;11.926;2022-12-18T05:14:59;3.80;99.90
16814;DHT22;8524;57.650;11.926;2022-12-18T05:17:28;3.80;99.90
16814;DHT22;8524;57.650;11.926;2022-12-18T05:19:55;3.70;99.90
16814;DHT22;8524;57.650;11.926;2022-12-18T05:22:23;3.80;99.90
16814;DHT22;8524;57.650;11.926;2022-12-18T05:24:51;3.80;99.90
16814;DHT22;8524;57.650;11.926;2022-12-18T05:27:18;3.80;99.90
16814;DHT22;8524;57.650;11.926;2022-12-18T05:29:46;3.80;99.90
16814;DHT22;8524;57.650;11.926;2022-12-18T05:32:13;3.80;99.90
16814;DHT22;8524;57.650;11.926;2022-12-18T05:34:40;3.80;99.90
16814;DHT22;8524;57.650;11.926;2022-12-18T05:37:06;3.90;99.90
16814;DHT22;8524;57.650;11.926;2022-12-18T05:39:35;3.90;99.90
16814;DHT22;8524;57.650;11.926;2022-12-18T05:42:02;3.90;99.90
16814;DHT22;8524;57.650;11.926;2022-12-18T05:44:29;3.90;99.90
16814;DHT22;8524;57.650;11.926;2022-12-18T05:46:55;3.90;99.90
16814;DHT22;8524;57.650;11.926;2022-12-18T05:49:22;3.90;99.90
16814;DHT22;8524;57.650;11.926;2022-12-18T05:51:49;3.90;99.90
16814;DHT22;8524;57.650;11.926;2022-12-18T05:54:16;3.90;99.90
16814;DHT22;8524;57.650;11.926;2022-12-18T05:56:44;3.80;99.90
16814;DHT22;8524;57.650;11.926;2022-12-18T05:59:11;3.90;99.90
16814;DHT22;8524;57.650;11.926;2022-12-18T06:01:38;3.80;99.90
16814;DHT22;8524;57.650;11.926;2022-12-18T06:04:05;3.90;99.90
16814;DHT22;8524;57.650;11.926;2022-12-18T06:06:32;3.80;99.90
16814;DHT22;8524;57.650;11.926;2022-12-18T06:08:58;3.90;99.90
16814;DHT22;8524;57.650;11.926;2022-12-18T06:11:27;3.80;99.90
16814;DHT22;8524;57.650;11.926;2022-12-18T06:13:56;3.80;99.90
16814;DHT22;8524;57.650;11.926;2022-12-18T06:16:23;3.90;99.90
16814;DHT22;8524;57.650;11.926;2022-12-18T06:18:49;3.90;99.90
16814;DHT22;8524;57.650;11.926;2022-12-18T06:21:16;3.90;99.90
16814;DHT22;8524;57.650;11.926;2022-12-18T06:23:43;4.00;99.90
16814;DHT22;8524;57.650;11.926;2022-12-18T06:26:12;3.90;99.90
16814;DHT22;8524;57.650;11.926;2022-12-18T06:28:38;3.90;99.90
16814;DHT22;8524;57.650;11.926;2022-12-18T06:31:07;3.90;99.90
16814;DHT22;8524;57.650;11.926;2022-12-18T06:33:35;3.90;99.90
16814;DHT22;8524;57.650;11.926;2022-12-18T06:36:04;3.90;99.90
16814;DHT22;8524;57.650;11.926;2022-12-18T06:38:31;4.00;99.90
16814;DHT22;8524;57.650;11.926;2022-12-18T06:40:58;4.00;99.90
16814;DHT22;8524;57.650;11.926;2022-12-18T06:43:25;4.00;99.90
16814;DHT22;8524;57.650;11.926;2022-12-18T06:45:58;4.00;99.90
16814;DHT22;8524;57.650;11.926;2022-12-18T06:48:27;3.90;99.90
16814;DHT22;8524;57.650;11.926;2022-12-18T06:50:54;3.90;99.90
16814;DHT22;8524;57.650;11.926;2022-12-18T06:53:21;3.90;99.90
16814;DHT22;8524;57.650;11.926;2022-12-18T06:55:48;4.00;99.90
16814;DHT22;8524;57.650;11.926;2022-12-18T06:58:15;4.00;99.90
16814;DHT22;8524;57.650;11.926;2022-12-18T07:00:42;4.00;99.90
16814;DHT22;8524;57.650;11.926;2022-12-18T07:03:08;4.00;99.90
16814;DHT22;8524;57.650;11.926;2022-12-18T07:05:41;4.00;99.90
16814;DHT22;8524;57.650;11.926;2022-12-18T07:08:07;4.00;99.90
16814;DHT22;8524;57.650;11.926;2022-12-18T07:10:40;4.00;99.90
16814;DHT22;8524;57.650;11.926;2022-12-18T07:13:07;4.00;99.90
16814;DHT22;8524;57.650;11.926;2022-12-18T07:15:34;4.00;99.90
16814;DHT22;8524;57.650;11.926;2022-12-18T07:18:01;4.00;99.90
16814;DHT22;8524;57.650;11.926;2022-12-18T07:20:28;4.00;99.90
16814;DHT22;8524;57.650;11.926;2022-12-18T07:22:57;4.00;99.90
16814;DHT22;8524;57.650;11.926;2022-12-18T07:25:24;4.00;99.90
16814;DHT22;8524;57.650;11.926;2022-12-18T07:27:51;4.10;99.90
16814;DHT22;8524;57.650;11.926;2022-12-18T07:30:17;4.10;99.90
16814;DHT22;8524;57.650;11.926;2022-12-18T07:32:44;4.10;99.90
16814;DHT22;8524;57.650;11.926;2022-12-18T07:35:11;4.10;99.90
16814;DHT22;8524;57.650;11.926;2022-12-18T07:37:38;4.10;99.90
16814;DHT22;8524;57.650;11.926;2022-12-18T07:40:08;4.10;99.90
16814;DHT22;8524;57.650;11.926;2022-12-18T07:42:35;4.10;99.90
16814;DHT22;8524;57.650;11.926;2022-12-18T07:45:03;4.20;99.90
16814;DHT22;8524;57.650;11.926;2022-12-18T07:47:30;4.10;99.90
16814;DHT22;8524;57.650;11.926;2022-12-18T07:49:57;4.10;99.90
16814;DHT22;8524;57.650;11.926;2022-12-18T07:52:24;4.20;99.90
16814;DHT22;8524;57.650;11.926;2022-12-18T07:54:50;4.20;99.90
16814;DHT22;8524;57.650;11.926;2022-12-18T07:57:19;4.20;99.90
16814;DHT22;8524;57.650;11.926;2022-12-18T07:59:45;4.20;99.90
16814;DHT22;8524;57.650;11.926;2022-12-18T08:02:12;4.20;99.90
16814;DHT22;8524;57.650;11.926;2022-12-18T08:04:40;4.20;99.90
16814;DHT22;8524;57.650;11.926;2022-12-18T08:07:06;4.20;99.90
16814;DHT22;8524;57.650;11.926;2022-12-18T08:09:33;4.20;99.90
16814;DHT22;8524;57.650;11.926;2022-12-18T08:12:00;4.20;99.90
16814;DHT22;8524;57.650;11.926;2022-12-18T08:14:28;4.20;99.90
16814;DHT22;8524;57.650;11.926;2022-12-18T08:16:55;4.10;99.90
16814;DHT22;8524;57.650;11.926;2022-12-18T08:19:23;4.20;99.90
16814;DHT22;8524;57.650;11.926;2022-12-18T08:21:50;4.20;99.90
16814;DHT22;8524;57.650;11.926;2022-12-18T08:24:17;4.20;99.90
16814;DHT22;8524;57.650;11.926;2022-12-18T08:26:44;4.20;99.90
16814;DHT22;8524;57.650;11.926;2022-12-18T08:29:10;4.20;99.90
16814;DHT22;8524;57.650;11.926;2022-12-18T08:31:39;4.20;99.90
16814;DHT22;8524;57.650;11.926;2022-12-18T08:34:06;4.30;99.90
16814;DHT22;8524;57.650;11.926;2022-12-18T08:36:32;4.30;99.90
16814;DHT22;8524;57.650;11.926;2022-12-18T08:38:59;4.30;99.90
16814;DHT22;8524;57.650;11.926;2022-12-18T08:41:26;4.30;99.90
16814;DHT22;8524;57.650;11.926;2022-12-18T08:43:53;4.30;99.90
16814;DHT22;8524;57.650;11.926;2022-12-18T08:46:42;4.30;99.90
16814;DHT22;8524;57.650;11.926;2022-12-18T08:49:11;4.30;99.90
16814;DHT22;8524;57.650;11.926;2022-12-18T08:51:38;4.30;99.90
16814;DHT22;8524;57.650;11.926;2022-12-18T08:54:05;4.30;99.90
16814;DHT22;8524;57.650;11.926;2022-12-18T08:56:33;4.40;99.90
16814;DHT22;8524;57.650;11.926;2022-12-18T08:59:00;4.40;99.90
16814;DHT22;8524;57.650;11.926;2022-12-18T09:01:26;4.40;99.90
16814;DHT22;8524;57.650;11.926;2022-12-18T09:03:55;4.40;99.90
16814;DHT22;8524;57.650;11.926;2022-12-18T09:06:23;4.30;99.90
16814;DHT22;8524;57.650;11.926;2022-12-18T09:08:50;4.40;99.90
16814;DHT22;8524;57.650;11.926;2022-12-18T09:11:20;4.30;99.90
16814;DHT22;8524;57.650;11.926;2022-12-18T09:13:48;4.30;99.90
16814;DHT22;8524;57.650;11.926;2022-12-18T09:16:15;4.30;99.90
16814;DHT22;8524;57.650;11.926;2022-12-18T09:18:42;4.30;99.90
16814;DHT22;8524;57.650;11.926;2022-12-18T09:21:13;4.30;99.90
16814;DHT22;8524;57.650;11.926;2022-12-18T09:23:40;4.30;99.90
16814;DHT22;8524;57.650;11.926;2022-12-18T09:26:07;4.30;99.90
16814;DHT22;8524;57.650;11.926;2022-12-18T09:28:34;4.30;99.90
16814;DHT22;8524;57.650;11.926;2022-12-18T09:31:05;4.30;99.90
16814;DHT22;8524;57.650;11.926;2022-12-18T09:33:33;4.30;99.90
16814;DHT22;8524;57.650;11.926;2022-12-18T09:36:01;4.30;99.90
16814;DHT22;8524;57.650;11.926;2022-12-18T09:38:30;4.40;99.90
16814;DHT22;8524;57.650;11.926;2022-12-18T09:41:00;4.30;99.90
16814;DHT22;8524;57.650;11.926;2022-12-18T09:43:35;4.30;99.90
16814;DHT22;8524;57.650;11.926;2022-12-18T09:46:07;4.30;99.90
16814;DHT22;8524;57.650;11.926;2022-12-18T09:48:36;4.30;99.90
16814;DHT22;8524;57.650;11.926;2022-12-18T09:51:11;4.20;99.90
16814;DHT22;8524;57.650;11.926;2022-12-18T09:53:43;4.20;99.90
16814;DHT22;8524;57.650;11.926;2022-12-18T09:56:15;4.20;99.90
16814;DHT22;8524;57.650;11.926;2022-12-18T09:58:48;4.10;99.90
16814;DHT22;8524;57.650;11.926;2022-12-18T10:01:21;4.20;99.90
16814;DHT22;8524;57.650;11.926;2022-12-18T10:03:49;4.10;99.90
16814;DHT22;8524;57.650;11.926;2022-12-18T10:06:23;4.10;99.90
16814;DHT22;8524;57.650;11.926;2022-12-18T10:08:58;4.10;99.90
16814;DHT22;8524;57.650;11.926;2022-12-18T10:11:34;4.20;99.90
16814;DHT22;8524;57.650;11.926;2022-12-18T10:14:10;4.10;99.90
16814;DHT22;8524;57.650;11.926;2022-12-18T10:16:44;4.10;99.90
16814;DHT22;8524;57.650;11.926;2022-12-18T10:19:25;4.10;99.90
16814;DHT22;8524;57.650;11.926;2022-12-18T10:21:59;4.20;99.90
16814;DHT22;8524;57.650;11.926;2022-12-18T10:24:33;4.30;99.90
16814;DHT22;8524;57.650;11.926;2022-12-18T10:27:13;4.30;99.90
16814;DHT22;8524;57.650;11.926;2022-12-18T10:29:42;4.30;99.90
16814;DHT22;8524;57.650;11.926;2022-12-18T10:32:14;4.40;99.90
16814;DHT22;8524;57.650;11.926;2022-12-18T10:34:45;4.30;99.90
16814;DHT22;8524;57.650;11.926;2022-12-18T10:37:16;4.40;99.90
16814;DHT22;8524;57.650;11.926;2022-12-18T10:39:46;4.30;99.90
16814;DHT22;8524;57.650;11.926;2022-12-18T10:42:17;4.30;99.90
16814;DHT22;8524;57.650;11.926;2022-12-18T10:44:45;4.30;99.90
16814;DHT22;8524;57.650;11.926;2022-12-18T10:47:14;4.30;99.90
16814;DHT22;8524;57.650;11.926;2022-12-18T10:49:49;4.40;99.90
16814;DHT22;8524;57.650;11.926;2022-12-18T10:52:18;4.40;99.90
16814;DHT22;8524;57.650;11.926;2022-12-18T10:54:50;4.50;99.90
16814;DHT22;8524;57.650;11.926;2022-12-18T10:57:31;4.50;99.90
16814;DHT22;8524;57.650;11.926;2022-12-18T11:00:01;4.60;99.90
16814;DHT22;8524;57.650;11.926;2022-12-18T11:02:40;4.60;99.90
16814;DHT22;8524;57.650;11.926;2022-12-18T11:05:23;4.60;99.90
16814;DHT22;8524;57.650;11.926;2022-12-18T11:07:50;4.70;99.90
16814;DHT22;8524;57.650;11.926;2022-12-18T11:10:25;4.70;99.90
16814;DHT22;8524;57.650;11.926;2022-12-18T11:12:52;4.70;99.90
16814;DHT22;8524;57.650;11.926;2022-12-18T11:15:21;4.70;99.90
16814;DHT22;8524;57.650;11.926;2022-12-18T11:17:50;4.70;99.90
16814;DHT22;8524;57.650;11.926;2022-12-18T11:20:23;4.70;99.90
16814;DHT22;8524;57.650;11.926;2022-12-18T11:22:56;4.70;99.90
16814;DHT22;8524;57.650;11.926;2022-12-18T11:25:25;4.70;99.90
16814;DHT22;8524;57.650;11.926;2022-12-18T11:27:54;4.70;99.90
16814;DHT22;8524;57.650;11.926;2022-12-18T11:30:23;4.70;99.90
16814;DHT22;8524;57.650;11.926;2022-12-18T11:32:54;4.60;99.90
16814;DHT22;8524;57.650;11.926;2022-12-18T11:35:32;4.70;99.90
16814;DHT22;8524;57.650;11.926;2022-12-18T11:38:06;4.70;99.90
16814;DHT22;8524;57.650;11.926;2022-12-18T11:40:40;4.70;99.90
16814;DHT22;8524;57.650;11.926;2022-12-18T11:43:11;4.70;99.90
16814;DHT22;8524;57.650;11.926;2022-12-18T11:45:45;4.70;99.90
16814;DHT22;8524;57.650;11.926;2022-12-18T11:48:17;4.70;99.90
16814;DHT22;8524;57.650;11.926;2022-12-18T11:50:49;4.70;99.90
16814;DHT22;8524;57.650;11.926;2022-12-18T11:53:17;4.70;99.90
16814;DHT22;8524;57.650;11.926;2022-12-18T11:55:54;4.80;99.90
16814;DHT22;8524;57.650;11.926;2022-12-18T12:01:25;4.80;99.90
16814;DHT22;8524;57.650;11.926;2022-12-18T12:04:22;4.70;99.90
16814;DHT22;8524;57.650;11.926;2022-12-18T12:07:02;4.60;99.90
16814;DHT22;8524;57.650;11.926;2022-12-18T12:09:36;4.60;99.90
16814;DHT22;8524;57.650;11.926;2022-12-18T12:12:20;4.60;99.90
16814;DHT22;8524;57.650;11.926;2022-12-18T12:14:57;4.60;99.90
16814;DHT22;8524;57.650;11.926;2022-12-18T12:17:35;4.60;99.90
16814;DHT22;8524;57.650;11.926;2022-12-18T12:20:10;4.60;99.90
16814;DHT22;8524;57.650;11.926;2022-12-18T12:22:46;4.60;99.90
16814;DHT22;8524;57.650;11.926;2022-12-18T12:25:25;4.50;99.90
16814;DHT22;8524;57.650;11.926;2022-12-18T12:28:06;4.50;99.90
16814;DHT22;8524;57.650;11.926;2022-12-18T12:30:39;4.50;99.90
16814;DHT22;8524;57.650;11.926;2022-12-18T12:33:19;4.50;99.90
16814;DHT22;8524;57.650;11.926;2022-12-18T12:35:55;4.50;99.90
16814;DHT22;8524;57.650;11.926;2022-12-18T12:38:28;4.50;99.90
16814;DHT22;8524;57.650;11.926;2022-12-18T12:41:00;4.50;99.90
16814;DHT22;8524;57.650;11.926;2022-12-18T12:43:37;4.50;99.90
16814;DHT22;8524;57.650;11.926;2022-12-18T12:46:05;4.60;99.90
16814;DHT22;8524;57.650;11.926;2022-12-18T12:48:40;4.60;99.90
16814;DHT22;8524;57.650;11.926;2022-12-18T12:51:12;4.60;99.90
16814;DHT22;8524;57.650;11.926;2022-12-18T12:53:40;4.70;99.90
16814;DHT22;8524;57.650;11.926;2022-12-18T12:56:10;4.70;99.90
16814;DHT22;8524;57.650;11.926;2022-12-18T12:58:46;4.70;99.90
16814;DHT22;8524;57.650;11.926;2022-12-18T13:01:23;4.70;99.90
16814;DHT22;8524;57.650;11.926;2022-12-18T13:03:59;4.80;99.90
16814;DHT22;8524;57.650;11.926;2022-12-18T13:06:40;4.70;99.90
16814;DHT22;8524;57.650;11.926;2022-12-18T13:09:09;4.70;99.90
16814;DHT22;8524;57.650;11.926;2022-12-18T13:11:38;4.70;99.90
16814;DHT22;8524;57.650;11.926;2022-12-18T13:14:27;4.70;99.90
16814;DHT22;8524;57.650;11.926;2022-12-18T13:17:14;4.70;99.90
16814;DHT22;8524;57.650;11.926;2022-12-18T13:19:42;4.60;99.90
16814;DHT22;8524;57.650;11.926;2022-12-18T13:22:21;4.60;99.90
16814;DHT22;8524;57.650;11.926;2022-12-18T13:24:48;4.60;99.90
16814;DHT22;8524;57.650;11.926;2022-12-18T13:33:49;4.60;99.90
16814;DHT22;8524;57.650;11.926;2022-12-18T13:36:31;4.60;99.90
16814;DHT22;8524;57.650;11.926;2022-12-18T13:39:20;4.60;99.90
16814;DHT22;8524;57.650;11.926;2022-12-18T13:41:49;4.50;99.90
16814;DHT22;8524;57.650;11.926;2022-12-18T13:44:25;4.50;99.90
16814;DHT22;8524;57.650;11.926;2022-12-18T13:46:52;4.50;99.90
16814;DHT22;8524;57.650;11.926;2022-12-18T13:49:25;4.50;99.90
16814;DHT22;8524;57.650;11.926;2022-12-18T13:51:54;4.40;99.90
16814;DHT22;8524;57.650;11.926;2022-12-18T13:54:25;4.40;99.90
16814;DHT22;8524;57.650;11.926;2022-12-18T13:56:54;4.40;99.90
16814;DHT22;8524;57.650;11.926;2022-12-18T13:59:25;4.40;99.90
16814;DHT22;8524;57.650;11.926;2022-12-18T14:01:54;4.40;99.90
16814;DHT22;8524;57.650;11.926;2022-12-18T14:04:27;4.30;99.90
16814;DHT22;8524;57.650;11.926;2022-12-18T14:06:57;4.20;99.90
16814;DHT22;8524;57.650;11.926;2022-12-18T14:09:27;4.20;99.90
16814;DHT22;8524;57.650;11.926;2022-12-18T14:11:56;4.10;99.90
16814;DHT22;8524;57.650;11.926;2022-12-18T14:14:37;4.00;99.90
16814;DHT22;8524;57.650;11.926;2022-12-18T14:17:09;4.00;99.90
16814;DHT22;8524;57.650;11.926;2022-12-18T14:19:41;4.10;99.90
16814;DHT22;8524;57.650;11.926;2022-12-18T14:22:16;4.10;99.90
16814;DHT22;8524;57.650;11.926;2022-12-18T14:24:44;4.20;99.90
16814;DHT22;8524;57.650;11.926;2022-12-18T14:27:21;4.10;99.90
16814;DHT22;8524;57.650;11.926;2022-12-18T14:29:48;4.10;99.90
16814;DHT22;8524;57.650;11.926;2022-12-18T14:32:17;4.10;99.90
16814;DHT22;8524;57.650;11.926;2022-12-18T14:34:46;4.20;99.90
16814;DHT22;8524;57.650;11.926;2022-12-18T14:37:14;4.20;99.90
16814;DHT22;8524;57.650;11.926;2022-12-18T14:39:52;4.20;99.90
16814;DHT22;8524;57.650;11.926;2022-12-18T14:42:19;4.30;99.90
16814;DHT22;8524;57.650;11.926;2022-12-18T14:44:46;4.20;99.90
16814;DHT22;8524;57.650;11.926;2022-12-18T14:47:14;4.20;99.90
16814;DHT22;8524;57.650;11.926;2022-12-18T14:49:42;4.20;99.90
16814;DHT22;8524;57.650;11.926;2022-12-18T14:52:25;4.20;99.90
16814;DHT22;8524;57.650;11.926;2022-12-18T14:54:53;4.20;99.90
16814;DHT22;8524;57.650;11.926;2022-12-18T14:57:22;4.10;99.90
16814;DHT22;8524;57.650;11.926;2022-12-18T14:59:50;4.10;99.90
16814;DHT22;8524;57.650;11.926;2022-12-18T15:02:21;4.10;99.90
16814;DHT22;8524;57.650;11.926;2022-12-18T15:04:59;4.10;99.90
16814;DHT22;8524;57.650;11.926;2022-12-18T15:07:40;4.10;99.90
16814;DHT22;8524;57.650;11.926;2022-12-18T15:10:12;4.10;99.90
16814;DHT22;8524;57.650;11.926;2022-12-18T15:12:41;4.10;99.90
16814;DHT22;8524;57.650;11.926;2022-12-18T15:18:13;4.20;99.90
16814;DHT22;8524;57.650;11.926;2022-12-18T15:20:43;4.10;99.90
16814;DHT22;8524;57.650;11.926;2022-12-18T15:23:16;4.20;99.90
16814;DHT22;8524;57.650;11.926;2022-12-18T15:25:43;4.20;99.90
16814;DHT22;8524;57.650;11.926;2022-12-18T15:28:21;4.20;99.90
16814;DHT22;8524;57.650;11.926;2022-12-18T15:31:00;4.20;99.90
16814;DHT22;8524;57.650;11.926;2022-12-18T15:33:31;4.30;99.90
16814;DHT22;8524;57.650;11.926;2022-12-18T15:36:00;4.30;99.90
16814;DHT22;8524;57.650;11.926;2022-12-18T15:38:29;4.30;99.90
16814;DHT22;8524;57.650;11.926;2022-12-18T15:40:56;4.20;99.90
16814;DHT22;8524;57.650;11.926;2022-12-18T15:43:24;4.20;99.90
16814;DHT22;8524;57.650;11.926;2022-12-18T15:45:59;4.30;99.90
16814;DHT22;8524;57.650;11.926;2022-12-18T15:48:26;4.30;99.90
16814;DHT22;8524;57.650;11.926;2022-12-18T15:50:55;4.30;99.90
16814;DHT22;8524;57.650;11.926;2022-12-18T15:53:24;4.30;99.90
16814;DHT22;8524;57.650;11.926;2022-12-18T15:55:53;4.30;99.90
16814;DHT22;8524;57.650;11.926;2022-12-18T15:58:37;4.30;99.90
16814;DHT22;8524;57.650;11.926;2022-12-18T16:01:04;4.30;99.90
16814;DHT22;8524;57.650;11.926;2022-12-18T16:03:31;4.20;99.90
16814;DHT22;8524;57.650;11.926;2022-12-18T16:05:59;4.30;99.90
16814;DHT22;8524;57.650;11.926;2022-12-18T16:08:27;4.30;99.90
16814;DHT22;8524;57.650;11.926;2022-12-18T16:10:56;4.30;99.90
16814;DHT22;8524;57.650;11.926;2022-12-18T16:13:24;4.20;99.90
16814;DHT22;8524;57.650;11.926;2022-12-18T16:15:50;4.20;99.90
16814;DHT22;8524;57.650;11.926;2022-12-18T16:18:17;4.20;99.90